Time;durP1;ratioP1;P1;durP2;ratioP2;P2;SDS_P1;SDS_P2;PMS_P1;PMS_P2;Temp;Humidity;BMP_temperature;BMP_pressure;BME280_temperature;BME280_humidity;BME280_pressure;Samples;Min_cycle;Max_cycle;Signal;HPM_P1;HPM_P2
2023/08/18 15:04:23;;;;;;;;;;;;;;;34.62;31.90;99356.31;326989;30;1125;-77
2023/08/18 15:04:33;;;;;;;;;;;;;;;34.49;31.80;99346.38;325419;30;1205;-76
2023/08/18 15:04:44;;;;;;;;;;;;;;;34.48;32.48;99346.63;324741;30;1913;-76
2023/08/18 15:04:54;;;;;;;;;;;;;;;34.47;32.06;99343.06;324561;30;884;-76
2023/08/18 15:05:04;;;;;;;;;;;;;;;34.49;32.08;99348.28;322049;30;2111;-76
2023/08/18 15:05:17;;;;;;;;;;;;;;;34.50;32.36;99352.66;322285;30;1987;-76
2023/08/18 15:05:27;;;;;;;;;;;;;;;34.51;32.68;99343.44;323816;30;2127;-76
2023/08/18 15:05:37;;;;;;;;;;;;;;;34.53;32.66;99344.88;322161;30;812;-76
2023/08/18 15:05:48;;;;;;;;;;;;;;;34.53;32.13;99342.16;319597;30;2113;-76
2023/08/18 15:05:58;;;;;;;;;;;;;;;34.53;32.00;99339.44;317433;30;1784;-76
2023/08/18 15:06:08;;;;;;;;;;;;;;;34.53;32.30;99347.59;318843;30;1230;-77
2023/08/18 15:06:19;;;;;;;;;;;;;;;34.50;32.72;99337.19;316383;31;1316;-76
2023/08/18 15:06:29;;;;;;;;;;;;;;;34.51;32.85;99346.16;313098;31;1222;-76
2023/08/18 15:06:39;;;;;;;;;;;;;;;34.52;32.08;99345.94;313045;31;822;-76
2023/08/18 15:06:51;;;;;;;;;;;;;;;34.50;32.47;99339.91;315714;31;1932;-76
2023/08/18 15:07:04;;;;;;;;;;;;;;;34.52;32.60;99343.22;312890;31;2658;-76
2023/08/18 15:07:14;;;;;;;;;;;;;;;34.51;32.31;99346.16;310877;31;2699;-76
2023/08/18 15:07:24;;;;;;;;;;;;;;;34.51;32.26;99344.28;311975;31;1214;-75
2023/08/18 15:07:35;;;;;;;;;;;;;;;34.51;32.93;99338.84;310630;31;3007;-76
2023/08/18 15:07:47;;;;;;;;;;;;;;;34.50;32.39;99337.19;309001;31;3033;-77
2023/08/18 15:07:57;;;;;;;;;;;;;;;34.50;32.33;99342.63;308144;31;2961;-76
2023/08/18 15:08:07;;;;;;;;;;;;;;;34.51;32.74;99343.44;308575;32;898;-76
2023/08/18 15:08:18;;;;;;;;;;;;;;;34.50;32.59;99342.63;307252;32;2728;-76
2023/08/18 15:08:28;;;;;;;;;;;;;;;34.50;32.69;99334.47;304942;32;1663;-76
2023/08/18 15:08:38;;;;;;;;;;;;;;;34.50;32.40;99342.63;303203;32;1225;-76
2023/08/18 15:08:48;;;;;;;;;;;;;;;34.50;32.97;99342.63;302360;32;1877;-76
2023/08/18 15:08:58;;;;;;;;;;;;;;;34.51;32.31;99338.84;302469;32;2751;-77
2023/08/18 15:09:09;;;;;;;;;;;;;;;34.52;32.88;99345.94;305295;32;1580;-76
2023/08/18 15:09:20;;;;;;;;;;;;;;;34.53;33.01;99342.16;299543;32;3990;-76
2023/08/18 15:09:31;;;;;;;;;;;;;;;34.54;32.37;99343.84;297854;32;4297;-77
2023/08/18 15:09:41;;;;;;;;;;;;;;;34.57;32.42;99340.66;299168;32;4356;-76
2023/08/18 15:09:52;;;;;;;;;;;;;;;34.59;33.11;99345.88;297082;33;1396;-76
2023/08/18 15:10:03;;;;;;;;;;;;;;;34.57;32.59;99337.94;294184;33;4305;-76
2023/08/18 15:10:13;;;;;;;;;;;;;;;34.58;32.87;99336.88;291112;33;4741;-76
2023/08/18 15:10:23;;;;;;;;;;;;;;;34.60;33.10;99337.50;296014;33;3412;-76
2023/08/18 15:10:35;;;;;;;;;;;;;;;34.62;33.27;99346.25;298257;32;3371;-76
2023/08/18 15:10:45;;;;;;;;;;;;;;;34.60;32.58;99337.50;298748;32;2386;-77
2023/08/18 15:10:55;;;;;;;;;;;;;;;34.59;32.98;99341.28;297407;33;1685;-75
2023/08/18 15:11:05;;;;;;;;;;;;;;;34.60;32.64;99342.94;292341;33;3208;-75
2023/08/18 15:11:16;;;;;;;;;;;;;;;34.59;32.89;99346.72;290742;33;5493;-75
2023/08/18 15:11:26;;;;;;;;;;;;;;;34.56;32.63;99341.72;291034;33;5933;-76
2023/08/18 15:11:37;;;;;;;;;;;;;;;34.54;33.04;99345.72;293184;33;923;-76
2023/08/18 15:11:48;;;;;;;;;;;;;;;34.51;32.71;99344.28;289181;33;7264;-75
2023/08/18 15:11:58;;;;;;;;;;;;;;;34.48;33.02;99344.72;290248;33;7032;-77
2023/08/18 15:12:08;;;;;;;;;;;;;;;34.45;32.81;99345.16;294095;33;1069;-75
2023/08/18 15:12:20;;;;;;;;;;;;;;;34.41;32.69;99348.56;289977;33;6941;-76
2023/08/18 15:12:31;;;;;;;;;;;;;;;34.38;32.99;99346.28;286906;34;5976;-75
2023/08/18 15:12:41;;;;;;;;;;;;;;;34.35;32.78;99345.66;287106;34;5907;-76
2023/08/18 15:12:51;;;;;;;;;;;;;;;34.35;33.15;99350.28;288465;34;1735;-75
2023/08/18 15:13:01;;;;;;;;;;;;;;;34.34;32.98;99349.44;286544;34;4035;-76
2023/08/18 15:13:12;;;;;;;;;;;;;;;34.35;33.44;99342.13;283219;34;4577;-76
2023/08/18 15:13:22;;;;;;;;;;;;;;;34.36;33.43;99346.50;283736;34;853;-76
2023/08/18 15:15:38;;;;;;;;;;;;;;;34.39;33.42;99339.78;2490021;27;19931;-76
2023/08/18 15:15:48;;;;;;;;;;;;;;;34.40;33.74;99342.28;352980;27;1828;-76
2023/08/18 15:15:58;;;;;;;;;;;;;;;34.41;33.01;99338.50;351838;28;1360;-76
2023/08/18 15:16:09;;;;;;;;;;;;;;;34.42;33.66;99339.34;348483;28;1352;-76
2023/08/18 15:16:19;;;;;;;;;;;;;;;34.44;33.68;99348.13;347650;28;1306;-76
2023/08/18 15:16:29;;;;;;;;;;;;;;;34.45;33.25;99338.91;346096;28;1241;-76
2023/08/18 15:16:40;;;;;;;;;;;;;;;34.44;33.24;99343.50;345941;28;893;-76
2023/08/18 15:16:50;;;;;;;;;;;;;;;34.42;33.70;99347.50;345380;28;1736;-78
2023/08/18 15:17:00;;;;;;;;;;;;;;;34.42;33.76;99350.22;347231;28;1234;-77
2023/08/18 15:17:11;;;;;;;;;;;;;;;34.42;33.67;99344.78;347241;28;1485;-77
2023/08/18 15:17:21;;;;;;;;;;;;;;;34.40;33.63;99345.00;348111;28;883;-77
2023/08/18 15:17:31;;;;;;;;;;;;;;;34.37;34.03;99350.88;345441;28;1537;-77
2023/08/18 15:17:41;;;;;;;;;;;;;;;34.34;33.20;99351.34;346217;28;1258;-77
2023/08/18 15:17:52;;;;;;;;;;;;;;;34.32;33.15;99345.28;346742;28;1237;-77
2023/08/18 15:18:03;;;;;;;;;;;;;;;34.31;33.67;99340.91;345691;28;1951;-77
2023/08/18 15:18:14;;;;;;;;;;;;;;;34.29;33.08;99351.13;343516;28;1365;-78
2023/08/18 15:18:25;;;;;;;;;;;;;;;34.24;32.80;99345.53;344050;28;1387;-77
2023/08/18 15:18:35;;;;;;;;;;;;;;;34.20;33.11;99347.88;346085;28;1227;-77
2023/08/18 15:18:45;;;;;;;;;;;;;;;34.21;32.95;99349.56;344818;28;828;-77
2023/08/18 15:18:55;;;;;;;;;;;;;;;34.18;32.76;99346.44;345553;28;860;-77
2023/08/18 15:19:05;;;;;;;;;;;;;;;34.15;33.49;99344.16;347261;28;1061;-77
2023/08/18 15:19:16;;;;;;;;;;;;;;;34.13;34.13;99341.69;347476;28;1251;-76
2023/08/18 15:19:26;;;;;;;;;;;;;;;34.07;34.64;99347.16;346996;28;1494;-77
2023/08/18 15:19:36;;;;;;;;;;;;;;;34.07;34.50;99349.88;345524;28;1406;-76
2023/08/18 15:19:46;;;;;;;;;;;;;;;34.09;34.46;99345.88;345547;28;1720;-76
2023/08/18 15:19:57;;;;;;;;;;;;;;;34.13;34.61;99351.72;344348;28;1185;-77
2023/08/18 15:20:08;;;;;;;;;;;;;;;34.15;34.55;99346.88;345120;28;1455;-76
2023/08/18 15:20:18;;;;;;;;;;;;;;;34.18;34.41;99344.56;344804;28;1355;-76
2023/08/18 15:20:30;;;;;;;;;;;;;;;34.22;35.63;99355.81;346187;28;1300;-76
2023/08/18 15:20:40;;;;;;;;;;;;;;;34.24;35.00;99356.41;346217;28;1115;-76
2023/08/18 15:20:50;;;;;;;;;;;;;;;34.18;34.61;99349.16;346106;28;1357;-77
2023/08/18 15:21:00;;;;;;;;;;;;;;;34.16;34.58;99356.69;346048;28;1203;-77
2023/08/18 15:21:10;;;;;;;;;;;;;;;34.08;35.72;99362.41;346025;28;1553;-76
2023/08/18 15:21:21;;;;;;;;;;;;;;;33.97;33.33;99353.91;349859;28;1247;-78
2023/08/18 15:21:31;;;;;;;;;;;;;;;33.91;33.17;99343.94;346872;28;1298;-77
2023/08/18 15:21:41;;;;;;;;;;;;;;;33.85;34.05;99350.22;346103;28;1626;-76
2023/08/18 15:21:52;;;;;;;;;;;;;;;33.83;34.50;99349.63;345344;28;1464;-77
2023/08/18 15:22:02;;;;;;;;;;;;;;;33.75;34.58;99341.72;345317;28;1283;-76
2023/08/18 15:22:12;;;;;;;;;;;;;;;33.70;34.03;99339.66;344850;28;1243;-77
2023/08/18 15:22:22;;;;;;;;;;;;;;;33.69;34.53;99348.03;343643;28;903;-76
2023/08/18 15:22:33;;;;;;;;;;;;;;;33.70;34.67;99346.97;343662;28;927;-76
2023/08/18 15:22:43;;;;;;;;;;;;;;;33.70;35.08;99344.28;344937;28;851;-76
2023/08/18 15:22:53;;;;;;;;;;;;;;;33.71;34.97;99357.63;344843;28;1301;-77
2023/08/18 15:23:03;;;;;;;;;;;;;;;33.68;35.11;99349.91;343452;28;1232;-75
2023/08/18 15:23:14;;;;;;;;;;;;;;;33.69;34.98;99361.59;343756;28;877;-75
2023/08/18 15:23:24;;;;;;;;;;;;;;;33.61;33.96;99349.13;346213;28;1310;-77
2023/08/18 15:23:34;;;;;;;;;;;;;;;33.57;35.17;99349.78;344264;28;1382;-76
2023/08/18 15:23:44;;;;;;;;;;;;;;;33.47;34.29;99352.13;344402;28;1364;-76
2023/08/18 15:23:54;;;;;;;;;;;;;;;33.43;33.16;99345.47;342158;28;1217;-76
2023/08/18 15:24:06;;;;;;;;;;;;;;;33.39;33.56;99342.34;343636;28;1244;-76
2023/08/18 15:24:16;;;;;;;;;;;;;;;33.36;33.27;99343.59;342180;28;1350;-76
2023/08/18 15:24:27;;;;;;;;;;;;;;;33.37;33.52;99348.00;342208;28;1077;-76
2023/08/18 15:24:37;;;;;;;;;;;;;;;33.38;34.02;99341.50;339085;29;1435;-76
2023/08/18 15:24:50;;;;;;;;;;;;;;;33.39;34.55;99347.78;341701;28;1589;-76
2023/08/18 15:25:00;;;;;;;;;;;;;;;33.41;34.55;99353.81;342677;28;852;-76
2023/08/18 15:25:11;;;;;;;;;;;;;;;33.44;34.77;99344.41;343467;28;1087;-76
2023/08/18 15:25:21;;;;;;;;;;;;;;;33.43;34.02;99351.72;343548;28;892;-76
2023/08/18 15:25:32;;;;;;;;;;;;;;;33.46;34.20;99351.28;344668;28;1476;-76
2023/08/18 15:25:46;;;;;;;;;;;;;;;33.45;34.17;99348.78;344960;28;1398;-77
2023/08/18 15:25:56;;;;;;;;;;;;;;;33.39;34.83;99351.31;339566;29;1286;-76
2023/08/18 15:26:07;;;;;;;;;;;;;;;33.39;34.77;99345.88;340311;29;1874;-76
2023/08/18 15:26:17;;;;;;;;;;;;;;;33.41;35.05;99352.97;337295;29;1670;-77
2023/08/18 15:26:28;;;;;;;;;;;;;;;33.43;34.58;99348.19;335041;29;2030;-77
2023/08/18 15:26:38;;;;;;;;;;;;;;;33.42;33.78;99349.22;336962;29;861;-77
2023/08/18 15:26:48;;;;;;;;;;;;;;;33.42;33.68;99354.66;336344;29;1555;-77
2023/08/18 15:26:58;;;;;;;;;;;;;;;33.37;33.18;99342.56;336763;29;1260;-76
2023/08/18 15:27:09;;;;;;;;;;;;;;;33.36;32.90;99349.03;334368;29;1216;-75
2023/08/18 15:27:19;;;;;;;;;;;;;;;33.36;33.08;99351.75;333363;29;1545;-76
2023/08/18 15:27:29;;;;;;;;;;;;;;;33.37;33.05;99350.69;332601;29;1494;-76
2023/08/18 15:27:45;;;;;;;;;;;;;;;33.38;33.82;99348.81;331896;29;925;-75
2023/08/18 15:27:55;;;;;;;;;;;;;;;33.41;33.91;99345.69;330592;29;859;-77
2023/08/18 15:28:06;;;;;;;;;;;;;;;33.44;33.78;99349.84;329915;29;2210;-76
2023/08/18 15:28:16;;;;;;;;;;;;;;;33.46;33.14;99351.28;329786;29;2500;-76
2023/08/18 15:28:26;;;;;;;;;;;;;;;33.50;33.57;99357.13;325717;30;1437;-77
2023/08/18 15:28:36;;;;;;;;;;;;;;;33.53;33.41;99346.66;327644;30;2384;-76
2023/08/18 15:28:46;;;;;;;;;;;;;;;33.56;33.17;99350.81;329075;29;2451;-77
2023/08/18 15:28:57;;;;;;;;;;;;;;;33.57;33.39;99344.34;330130;29;1406;-76
2023/08/18 15:29:07;;;;;;;;;;;;;;;33.59;33.23;99348.50;327874;30;1763;-75
2023/08/18 15:29:17;;;;;;;;;;;;;;;33.62;33.45;99349.94;325781;30;1271;-76
2023/08/18 15:29:27;;;;;;;;;;;;;;;33.62;33.72;99349.94;322799;30;1844;-77
2023/08/18 15:29:38;;;;;;;;;;;;;;;33.63;33.54;99351.63;319668;30;1683;-79
2023/08/18 15:29:48;;;;;;;;;;;;;;;33.64;33.16;99351.41;316833;30;2191;-77
2023/08/18 15:29:58;;;;;;;;;;;;;;;33.65;33.14;99350.34;314411;31;2627;-77
2023/08/18 15:30:08;;;;;;;;;;;;;;;33.63;32.78;99346.19;313991;31;1221;-77
2023/08/18 15:30:19;;;;;;;;;;;;;;;33.62;32.71;99344.53;313749;31;3217;-77
2023/08/18 15:30:32;;;;;;;;;;;;;;;33.61;32.80;99348.28;313272;31;3338;-77
2023/08/18 15:30:42;;;;;;;;;;;;;;;33.56;32.65;99350.81;313427;31;1675;-77
2023/08/18 15:30:52;;;;;;;;;;;;;;;33.53;33.02;99348.53;308660;32;1182;-77
2023/08/18 15:31:04;;;;;;;;;;;;;;;33.52;33.41;99342.28;308722;31;3201;-77
2023/08/18 15:31:17;;;;;;;;;;;;;;;33.54;32.76;99347.50;308314;31;2814;-77
2023/08/18 15:31:30;;;;;;;;;;;;;;;33.58;32.30;99348.72;308595;32;1048;-77
2023/08/18 15:31:40;;;;;;;;;;;;;;;33.57;31.92;99352.50;303269;32;1636;-78
2023/08/18 15:31:51;;;;;;;;;;;;;;;33.58;32.41;99352.28;300695;32;2454;-77
2023/08/18 15:32:01;;;;;;;;;;;;;;;33.56;32.21;99353.53;299933;32;3792;-77
2023/08/18 15:32:12;;;;;;;;;;;;;;;33.52;31.60;99350.41;302257;32;864;-78
2023/08/18 15:32:22;;;;;;;;;;;;;;;33.47;31.66;99347.53;302262;32;3786;-77
2023/08/18 15:32:32;;;;;;;;;;;;;;;33.43;31.50;99346.28;299737;32;4164;-76
2023/08/18 15:32:42;;;;;;;;;;;;;;;33.45;32.07;99349.63;298367;32;4922;-77
2023/08/18 15:32:53;;;;;;;;;;;;;;;33.43;31.70;99345.47;297917;33;1546;-77
2023/08/18 15:33:03;;;;;;;;;;;;;;;33.44;31.84;99347.97;294246;33;4712;-77
2023/08/18 15:33:14;;;;;;;;;;;;;;;33.44;31.67;99341.69;293412;33;4406;-77
2023/08/18 15:33:24;;;;;;;;;;;;;;;33.44;31.48;99347.13;298267;33;1393;-77
2023/08/18 15:33:34;;;;;;;;;;;;;;;33.44;31.35;99347.97;298131;33;3125;-77
2023/08/18 15:33:44;;;;;;;;;;;;;;;33.43;31.52;99350.88;296117;32;2916;-77
2023/08/18 15:33:55;;;;;;;;;;;;;;;33.41;31.69;99352.97;298099;33;1220;-77
2023/08/18 15:34:05;;;;;;;;;;;;;;;33.39;31.41;99339.63;297019;32;3863;-78
2023/08/18 15:34:15;;;;;;;;;;;;;;;33.40;31.33;99344.00;295713;33;5537;-77
2023/08/18 15:34:27;;;;;;;;;;;;;;;33.40;31.24;99338.59;298094;33;1931;-77
2023/08/18 15:34:37;;;;;;;;;;;;;;;33.39;31.01;99345.06;299845;32;1472;-77
2023/08/18 15:34:49;;;;;;;;;;;;;;;33.39;31.42;99354.03;296387;33;6008;-77
2023/08/18 15:34:59;;;;;;;;;;;;;;;33.39;31.37;99345.88;293468;33;7212;-76
2023/08/18 15:35:10;;;;;;;;;;;;;;;33.38;31.01;99346.94;295064;33;1216;-76
2023/08/18 15:35:20;;;;;;;;;;;;;;;33.39;31.04;99350.50;297138;33;5801;-76
2023/08/18 15:35:31;;;;;;;;;;;;;;;33.42;31.47;99349.22;299063;32;6212;-76
2023/08/18 15:35:44;;;;;;;;;;;;;;;33.42;31.53;99338.38;300159;32;841;-76
2023/08/18 15:35:54;;;;;;;;;;;;;;;33.44;31.53;99341.69;299021;33;1625;-76
2023/08/18 15:36:04;;;;;;;;;;;;;;;33.43;31.17;99345.47;292531;33;4210;-76
2023/08/18 15:36:14;;;;;;;;;;;;;;;33.45;31.34;99346.91;291118;33;5859;-77
2023/08/18 15:36:25;;;;;;;;;;;;;;;33.48;31.30;99342.94;292465;33;1016;-76
2023/08/18 15:36:35;;;;;;;;;;;;;;;33.48;31.24;99341.03;292420;33;7324;-76
2023/08/18 15:36:45;;;;;;;;;;;;;;;33.50;31.18;99346.25;294595;33;8607;-76
2023/08/18 15:36:55;;;;;;;;;;;;;;;33.52;31.22;99349.59;294996;33;1234;-76
2023/08/18 15:37:06;;;;;;;;;;;;;;;33.50;31.38;99349.81;290881;33;9162;-75
2023/08/18 15:39:34;;;;;;;;;;;;;;;33.51;31.02;99343.34;2500430;27;19937;-75
2023/08/18 15:39:44;;;;;;;;;;;;;;;33.53;31.23;99345.81;353533;27;1463;-75
2023/08/18 15:39:54;;;;;;;;;;;;;;;33.54;31.22;99352.91;353083;28;870;-75
2023/08/18 15:40:05;;;;;;;;;;;;;;;33.57;31.05;99352.50;352391;28;1829;-75
2023/08/18 15:40:16;;;;;;;;;;;;;;;33.57;30.72;99352.50;350185;28;1289;-76
2023/08/18 15:40:26;;;;;;;;;;;;;;;33.56;30.69;99350.81;350489;28;859;-76
2023/08/18 15:40:40;;;;;;;;;;;;;;;33.54;30.63;99351.03;350514;28;855;-77
2023/08/18 15:40:50;;;;;;;;;;;;;;;33.54;31.01;99352.91;348875;28;1248;-76
2023/08/18 15:41:00;;;;;;;;;;;;;;;33.53;30.87;99348.53;350134;28;1188;-75
2023/08/18 15:41:10;;;;;;;;;;;;;;;33.54;30.80;99355.63;348822;28;1306;-76
2023/08/18 15:41:20;;;;;;;;;;;;;;;33.56;30.19;99356.25;348188;28;1457;-76
2023/08/18 15:41:34;;;;;;;;;;;;;;;33.54;29.96;99347.50;350150;28;922;-76
2023/08/18 15:41:44;;;;;;;;;;;;;;;33.52;30.49;99355.03;350171;28;1344;-76
2023/08/18 15:41:54;;;;;;;;;;;;;;;33.50;30.73;99348.97;350318;28;784;-75
2023/08/18 15:42:05;;;;;;;;;;;;;;;33.51;30.54;99348.75;348884;28;1582;-75
2023/08/18 15:42:15;;;;;;;;;;;;;;;33.52;30.45;99352.31;349070;28;875;-75
2023/08/18 15:42:25;;;;;;;;;;;;;;;33.51;30.58;99346.03;349910;28;1434;-75
2023/08/18 15:42:35;;;;;;;;;;;;;;;33.55;30.84;99349.16;350436;28;816;-75
2023/08/18 15:42:46;;;;;;;;;;;;;;;33.56;30.90;99350.81;348985;28;1213;-75
2023/08/18 15:42:56;;;;;;;;;;;;;;;33.57;30.70;99347.88;348879;28;1034;-75
2023/08/18 15:43:08;;;;;;;;;;;;;;;33.60;30.61;99346.63;348949;28;861;-75
2023/08/18 15:43:19;;;;;;;;;;;;;;;33.61;30.74;99348.28;347745;28;939;-76
2023/08/18 15:43:31;;;;;;;;;;;;;;;33.63;31.08;99355.16;349235;28;956;-76
2023/08/18 15:43:41;;;;;;;;;;;;;;;33.66;30.82;99351.19;347083;28;928;-76
2023/08/18 15:43:51;;;;;;;;;;;;;;;33.67;31.03;99353.69;346330;28;998;-76
2023/08/18 15:44:02;;;;;;;;;;;;;;;33.66;30.35;99349.31;344303;28;1360;-76
2023/08/18 15:44:12;;;;;;;;;;;;;;;33.65;30.56;99354.94;343521;28;1770;-76
2023/08/18 15:44:22;;;;;;;;;;;;;;;33.64;30.56;99348.69;344184;28;1398;-77
2023/08/18 15:44:33;;;;;;;;;;;;;;;33.64;30.57;99350.56;344858;28;1748;-76
2023/08/18 15:44:43;;;;;;;;;;;;;;;33.64;30.50;99356.00;347450;28;1323;-77
2023/08/18 15:44:53;;;;;;;;;;;;;;;33.64;30.81;99350.56;344855;28;1034;-77
2023/08/18 15:45:03;;;;;;;;;;;;;;;33.63;30.90;99352.44;343892;28;1674;-77
2023/08/18 15:45:14;;;;;;;;;;;;;;;33.65;30.95;99349.53;342579;28;1531;-77
2023/08/18 15:45:24;;;;;;;;;;;;;;;33.66;31.07;99352.03;340846;28;1926;-77
2023/08/18 15:45:45;;;;;;;;;;;;;;;33.68;31.18;99354.50;342897;28;1894;-77
2023/08/18 15:45:55;;;;;;;;;;;;;;;33.70;30.75;99350.53;342477;28;1653;-74
2023/08/18 15:46:07;;;;;;;;;;;;;;;33.71;31.14;99349.47;340666;29;1317;-76
2023/08/18 15:46:17;;;;;;;;;;;;;;;33.73;31.17;99349.25;341866;28;1020;-76
2023/08/18 15:46:27;;;;;;;;;;;;;;;33.74;31.12;99350.94;341439;28;899;-76
2023/08/18 15:46:37;;;;;;;;;;;;;;;33.75;31.10;99355.31;340657;28;1229;-76
2023/08/18 15:46:49;;;;;;;;;;;;;;;33.74;30.84;99348.22;338196;29;1207;-77
2023/08/18 15:46:59;;;;;;;;;;;;;;;33.71;30.47;99348.66;337979;29;1246;-77
2023/08/18 15:47:09;;;;;;;;;;;;;;;33.70;30.80;99352.41;339224;28;955;-75
2023/08/18 15:47:19;;;;;;;;;;;;;;;33.69;30.92;99351.59;340775;29;1214;-76
2023/08/18 15:47:30;;;;;;;;;;;;;;;33.70;30.73;99352.41;341422;28;1207;-75
2023/08/18 15:47:40;;;;;;;;;;;;;;;33.70;30.94;99352.41;338511;28;1369;-75
2023/08/18 15:47:50;;;;;;;;;;;;;;;33.71;30.86;99351.38;342087;28;793;-75
2023/08/18 15:48:03;;;;;;;;;;;;;;;33.71;30.72;99348.66;339887;28;1211;-75
2023/08/18 15:48:14;;;;;;;;;;;;;;;33.71;31.52;99354.91;342172;28;1602;-74
2023/08/18 15:48:24;;;;;;;;;;;;;;;33.72;31.38;99347.59;343259;28;1308;-75
2023/08/18 15:48:35;;;;;;;;;;;;;;;33.71;30.72;99351.38;342811;28;762;-75
2023/08/18 15:48:45;;;;;;;;;;;;;;;33.70;31.10;99349.69;342847;28;1001;-74
2023/08/18 15:48:55;;;;;;;;;;;;;;;33.70;31.53;99357.84;341996;28;865;-74
2023/08/18 15:49:05;;;;;;;;;;;;;;;33.71;31.06;99354.06;340044;29;833;-73
2023/08/18 15:49:16;;;;;;;;;;;;;;;33.71;30.93;99352.19;337278;29;1335;-73
2023/08/18 15:49:26;;;;;;;;;;;;;;;33.72;31.22;99353.03;335612;29;1553;-73
2023/08/18 15:49:36;;;;;;;;;;;;;;;33.73;31.26;99349.25;334103;29;1263;-74
2023/08/18 15:49:47;;;;;;;;;;;;;;;33.71;30.90;99348.66;338214;29;1874;-73
2023/08/18 15:49:57;;;;;;;;;;;;;;;33.68;30.65;99352.63;336366;29;1856;-73
2023/08/18 15:50:08;;;;;;;;;;;;;;;33.67;30.95;99353.69;335591;29;1224;-73
2023/08/18 15:50:18;;;;;;;;;;;;;;;33.66;31.18;99353.91;337665;29;2024;-74
2023/08/18 15:50:28;;;;;;;;;;;;;;;33.62;31.18;99350.78;334616;29;2118;-74
2023/08/18 15:50:38;;;;;;;;;;;;;;;33.61;30.80;99354.56;331410;29;1544;-73
2023/08/18 15:50:48;;;;;;;;;;;;;;;33.62;30.77;99344.53;332791;29;1002;-73
2023/08/18 15:50:59;;;;;;;;;;;;;;;33.63;30.80;99346.19;330824;29;851;-74
2023/08/18 15:51:09;;;;;;;;;;;;;;;33.64;31.01;99347.84;330177;29;1957;-75
2023/08/18 15:51:20;;;;;;;;;;;;;;;33.65;30.87;99354.94;332969;29;874;-74
2023/08/18 15:51:30;;;;;;;;;;;;;;;33.65;30.87;99349.53;334084;29;1807;-74
2023/08/18 15:51:40;;;;;;;;;;;;;;;33.65;30.64;99342.22;331819;29;2067;-73
2023/08/18 15:51:50;;;;;;;;;;;;;;;33.67;30.78;99350.13;332735;29;1228;-73
2023/08/18 15:52:00;;;;;;;;;;;;;;;33.68;31.00;99354.50;329743;29;2441;-73
2023/08/18 15:52:11;;;;;;;;;;;;;;;33.68;30.86;99349.09;327624;30;2488;-74
2023/08/18 15:52:21;;;;;;;;;;;;;;;33.69;30.71;99350.75;328040;30;862;-74
2023/08/18 15:52:31;;;;;;;;;;;;;;;33.69;30.51;99345.31;324747;30;2750;-74
2023/08/18 15:52:41;;;;;;;;;;;;;;;33.70;31.17;99347.81;325217;30;2498;-75
2023/08/18 15:52:52;;;;;;;;;;;;;;;33.71;31.06;99351.38;324462;30;1273;-74
2023/08/18 15:53:02;;;;;;;;;;;;;;;33.70;31.07;99350.53;325249;30;1560;-74
2023/08/18 15:53:12;;;;;;;;;;;;;;;33.70;30.64;99357.84;328275;30;1275;-75
2023/08/18 15:53:23;;;;;;;;;;;;;;;33.69;30.73;99354.28;326788;30;1463;-74
2023/08/18 15:53:33;;;;;;;;;;;;;;;33.69;31.17;99350.75;325545;30;1915;-73
2023/08/18 15:53:43;;;;;;;;;;;;;;;33.64;30.59;99350.56;326436;30;2455;-73
2023/08/18 15:53:53;;;;;;;;;;;;;;;33.60;31.26;99349.34;323615;30;2824;-75
2023/08/18 15:54:04;;;;;;;;;;;;;;;33.59;30.95;99355.81;322197;30;812;-74
2023/08/18 15:54:14;;;;;;;;;;;;;;;33.60;31.11;99352.88;321439;30;3463;-73
2023/08/18 15:54:24;;;;;;;;;;;;;;;33.59;30.83;99353.94;321280;30;3305;-73
2023/08/18 15:54:34;;;;;;;;;;;;;;;33.55;31.12;99354.59;319391;30;1225;-74
2023/08/18 15:54:45;;;;;;;;;;;;;;;33.52;30.96;99349.59;316918;30;3459;-74
2023/08/18 15:54:55;;;;;;;;;;;;;;;33.50;30.80;99343.53;317790;30;2837;-74
2023/08/18 15:55:05;;;;;;;;;;;;;;;33.50;30.81;99352.53;318408;31;1233;-74
2023/08/18 15:55:15;;;;;;;;;;;;;;;33.49;30.92;99360.88;315514;31;2212;-74
2023/08/18 15:55:26;;;;;;;;;;;;;;;33.46;30.54;99350.47;313762;31;2487;-73
2023/08/18 15:55:36;;;;;;;;;;;;;;;33.46;30.64;99355.88;312882;31;1360;-73
2023/08/18 15:55:48;;;;;;;;;;;;;;;33.45;30.89;99359.66;315513;31;2683;-73
2023/08/18 15:55:58;;;;;;;;;;;;;;;33.42;30.75;99349.22;313546;31;3665;-74
2023/08/18 15:56:10;;;;;;;;;;;;;;;33.42;30.59;99354.66;312192;31;4283;-73
2023/08/18 15:56:20;;;;;;;;;;;;;;;33.42;30.67;99352.78;314157;31;1383;-73
2023/08/18 15:56:30;;;;;;;;;;;;;;;33.43;31.02;99357.16;311359;31;4643;-74
2023/08/18 15:56:41;;;;;;;;;;;;;;;33.45;30.73;99351.50;311525;31;4269;-74
2023/08/18 15:56:51;;;;;;;;;;;;;;;33.47;30.86;99354.84;308612;32;1506;-74
2023/08/18 15:57:01;;;;;;;;;;;;;;;33.46;30.52;99348.56;305946;32;4536;-74
2023/08/18 15:57:11;;;;;;;;;;;;;;;33.45;30.96;99349.63;304818;32;3940;-73
2023/08/18 15:57:21;;;;;;;;;;;;;;;33.44;31.09;99352.56;305405;32;919;-74
2023/08/18 15:57:32;;;;;;;;;;;;;;;33.44;30.65;99357.97;305424;32;2994;-74
2023/08/18 15:57:42;;;;;;;;;;;;;;;33.47;30.93;99352.13;304761;32;2753;-74
2023/08/18 15:57:53;;;;;;;;;;;;;;;33.48;31.16;99353.78;304227;32;1384;-73
2023/08/18 15:58:03;;;;;;;;;;;;;;;33.51;30.92;99353.34;304389;32;3889;-73
2023/08/18 15:58:39;;;;;;;;;;;;;;;33.53;30.95;99345.81;302836;32;5402;-73
2023/08/18 15:58:49;;;;;;;;;;;;;;;33.58;30.75;99354.16;302037;32;1324;-74
2023/08/18 15:59:02;;;;;;;;;;;;;;;33.59;30.94;99359.38;298424;32;5460;-76
2023/08/18 15:59:12;;;;;;;;;;;;;;;33.58;31.00;99354.97;296499;32;6012;-74
2023/08/18 15:59:22;;;;;;;;;;;;;;;33.57;30.66;99355.19;296335;33;1411;-74
2023/08/18 15:59:32;;;;;;;;;;;;;;;33.53;30.39;99348.53;294015;33;5700;-73
2023/08/18 15:59:43;;;;;;;;;;;;;;;33.52;30.70;99355.03;292254;33;4255;-73
2023/08/18 15:59:53;;;;;;;;;;;;;;;33.48;30.78;99359.22;293428;33;2174;-74
2023/08/18 16:00:04;;;;;;;;;;;;;;;33.47;31.01;99352.13;292002;33;1521;-75
2023/08/18 16:00:14;;;;;;;;;;;;;;;33.45;30.92;99354.22;291443;33;5949;-75
2023/08/18 16:00:24;;;;;;;;;;;;;;;33.44;31.01;99353.38;291695;33;7347;-74
2023/08/18 16:00:35;;;;;;;;;;;;;;;33.45;31.20;99356.94;290204;34;867;-74
2023/08/18 16:00:45;;;;;;;;;;;;;;;33.47;31.05;99357.56;287557;34;7869;-73
2023/08/18 16:00:55;;;;;;;;;;;;;;;33.47;30.87;99360.25;285494;34;7454;-74
2023/08/18 16:01:06;;;;;;;;;;;;;;;33.43;30.63;99357.16;285600;34;1603;-73
2023/08/18 16:01:16;;;;;;;;;;;;;;;33.43;30.54;99357.16;283688;34;8242;-74
2023/08/18 16:01:26;;;;;;;;;;;;;;;33.39;30.66;99356.75;284253;34;8597;-75
2023/08/18 16:01:36;;;;;;;;;;;;;;;33.38;30.64;99363.22;288223;34;847;-74
2023/08/18 16:01:47;;;;;;;;;;;;;;;33.37;30.70;99361.56;284850;34;8373;-74
2023/08/18 16:01:57;;;;;;;;;;;;;;;33.38;30.92;99351.53;281230;34;6406;-75
2023/08/18 16:02:07;;;;;;;;;;;;;;;33.35;31.01;99358.25;279741;35;1795;-75
2023/08/18 16:04:00;;;;;;;;;;;;;;;33.31;31.10;99358.91;2493131;27;20353;-74
2023/08/18 16:04:10;;;;;;;;;;;;;;;33.30;30.90;99360.78;355929;27;864;-75
2023/08/18 16:04:21;;;;;;;;;;;;;;;33.31;31.01;99354.31;354558;27;1086;-75
2023/08/18 16:04:31;;;;;;;;;;;;;;;33.33;31.06;99354.09;353026;28;1559;-74
2023/08/18 16:04:42;;;;;;;;;;;;;;;33.34;31.09;99359.31;352017;28;1394;-74
2023/08/18 16:04:52;;;;;;;;;;;;;;;33.35;30.97;99360.97;348433;28;1580;-74
2023/08/18 16:05:02;;;;;;;;;;;;;;;33.36;30.88;99362.59;346955;28;906;-74
2023/08/18 16:05:12;;;;;;;;;;;;;;;33.38;31.20;99360.50;347348;28;1315;-72
2023/08/18 16:05:23;;;;;;;;;;;;;;;33.38;31.25;99354.25;349334;28;1294;-75
2023/08/18 16:05:33;;;;;;;;;;;;;;;33.39;31.08;99359.47;347518;28;1327;-73
2023/08/18 16:05:44;;;;;;;;;;;;;;;33.41;31.07;99358.41;347571;28;868;-74
2023/08/18 16:05:54;;;;;;;;;;;;;;;33.42;31.45;99360.06;346052;28;1224;-73
2023/08/18 16:06:05;;;;;;;;;;;;;;;33.39;30.86;99356.75;346140;28;1133;-73
2023/08/18 16:06:15;;;;;;;;;;;;;;;33.37;30.87;99348.00;346131;28;1324;-73
2023/08/18 16:06:25;;;;;;;;;;;;;;;33.34;30.72;99363.91;346766;28;1573;-74
2023/08/18 16:06:35;;;;;;;;;;;;;;;33.32;30.67;99361.41;347649;28;1212;-74
2023/08/18 16:06:45;;;;;;;;;;;;;;;33.29;30.95;99359.13;347549;28;1208;-74
2023/08/18 16:06:56;;;;;;;;;;;;;;;33.29;30.76;99366.44;347461;28;1315;-74
2023/08/18 16:07:06;;;;;;;;;;;;;;;33.25;31.11;99360.56;347438;28;1195;-74
2023/08/18 16:07:16;;;;;;;;;;;;;;;33.26;30.91;99359.50;347827;28;744;-74